Time;durP1;ratioP1;P1;durP2;ratioP2;P2;SDS_P1;SDS_P2;PMS_P1;PMS_P2;Temp;Humidity;BMP_temperature;BMP_pressure;BME280_temperature;BME280_humidity;BME280_pressure;Samples;Min_cycle;Max_cycle;Signal;HPM_P1;HPM_P2
2024/01/13 00:01:32;;;;;;;0.20;0.20;;;-1.00;99.90;;;;;;5049101;28;20264;-67
2024/01/13 00:03:57;;;;;;;0.00;0.00;;;-1.00;99.90;;;;;;5050664;28;20213;-67
2024/01/13 00:06:23;;;;;;;0.10;0.10;;;-1.00;99.90;;;;;;5051249;28;20231;-67
2024/01/13 00:08:48;;;;;;;0.03;0.03;;;-1.00;99.90;;;;;;5050556;28;20189;-67
2024/01/13 00:11:14;;;;;;;0.03;0.03;;;-1.00;99.90;;;;;;5049260;28;20180;-67
2024/01/13 00:13:39;;;;;;;0.10;0.10;;;-1.10;99.90;;;;;;5050461;28;20196;-67
2024/01/13 00:16:05;;;;;;;0.10;0.10;;;-1.10;99.90;;;;;;5050488;28;20541;-66
2024/01/13 00:18:30;;;;;;;0.17;0.17;;;-1.10;99.90;;;;;;5050831;28;20185;-68
2024/01/13 00:20:56;;;;;;;0.00;0.00;;;-1.10;99.90;;;;;;5050703;28;20185;-69
2024/01/13 00:23:21;;;;;;;0.00;0.00;;;-1.10;99.90;;;;;;5050184;28;20240;-66
2024/01/13 00:25:47;;;;;;;0.08;0.08;;;-1.10;99.90;;;;;;5050718;28;20231;-66
2024/01/13 00:28:12;;;;;;;0.00;0.00;;;-1.10;99.90;;;;;;5054149;28;20180;-67
2024/01/13 00:30:38;;;;;;;0.37;0.37;;;-1.10;99.90;;;;;;5054102;28;20188;-67
2024/01/13 00:33:03;;;;;;;0.05;0.05;;;-1.10;99.90;;;;;;5053940;28;20185;-67
2024/01/13 00:35:29;;;;;;;0.30;0.30;;;-1.10;99.90;;;;;;5054684;28;20185;-67
2024/01/13 00:37:54;;;;;;;0.00;0.00;;;-1.10;99.90;;;;;;5066539;28;20703;-67
2024/01/13 00:40:20;;;;;;;0.00;0.00;;;-1.10;99.90;;;;;;5054526;28;20529;-67
2024/01/13 00:42:45;;;;;;;0.10;0.10;;;-1.10;99.90;;;;;;5053709;28;20235;-66
2024/01/13 00:45:12;;;;;;;0.00;0.00;;;-1.10;99.90;;;;;;5054255;28;20276;-67
2024/01/13 00:47:37;;;;;;;0.10;0.10;;;-1.10;99.90;;;;;;5054444;28;20189;-67
2024/01/13 00:50:03;;;;;;;0.00;0.00;;;-1.20;99.90;;;;;;5054252;28;20169;-66
2024/01/13 00:52:29;;;;;;;0.00;0.00;;;-1.30;99.90;;;;;;5054294;28;20790;-67
2024/01/13 00:54:54;;;;;;;0.67;0.67;;;-1.30;99.90;;;;;;5052638;28;20180;-67
2024/01/13 00:57:20;;;;;;;0.00;0.00;;;-1.30;99.90;;;;;;5054289;28;20593;-67
2024/01/13 00:59:45;;;;;;;0.00;0.00;;;-1.30;99.90;;;;;;5053841;28;20189;-67
2024/01/13 01:02:11;;;;;;;0.00;0.00;;;-1.40;99.90;;;;;;5054086;28;20249;-67
2024/01/13 01:04:36;;;;;;;0.00;0.00;;;-1.30;99.90;;;;;;5054047;28;20182;-66
2024/01/13 01:07:02;;;;;;;0.00;0.00;;;-1.30;99.90;;;;;;5057343;28;20229;-67
2024/01/13 01:09:27;;;;;;;0.00;0.00;;;-1.30;99.90;;;;;;5053750;28;20220;-66
2024/01/13 01:11:53;;;;;;;0.00;0.00;;;-1.30;99.90;;;;;;5053527;28;20200;-67
2024/01/13 01:14:18;;;;;;;0.00;0.00;;;-1.30;99.90;;;;;;5053625;28;20197;-67
2024/01/13 01:16:44;;;;;;;0.33;0.33;;;-1.30;99.90;;;;;;5052357;28;20207;-67
2024/01/13 01:19:09;;;;;;;0.10;0.10;;;-1.40;99.90;;;;;;5053549;28;20250;-68
2024/01/13 01:21:35;;;;;;;0.10;0.10;;;-1.40;99.90;;;;;;5053872;28;20193;-66
2024/01/13 01:24:00;;;;;;;0.00;0.00;;;-1.40;99.90;;;;;;5053557;28;20212;-67
2024/01/13 01:26:26;;;;;;;0.00;0.00;;;-1.40;99.90;;;;;;5053593;28;20542;-67
2024/01/13 01:28:51;;;;;;;0.00;0.00;;;-1.40;99.90;;;;;;5053545;28;20197;-67
2024/01/13 01:31:17;;;;;;;0.20;0.20;;;-1.40;99.90;;;;;;5053215;28;20189;-67
2024/01/13 01:33:43;;;;;;;0.07;0.07;;;-1.40;99.90;;;;;;5053450;28;20197;-67
2024/01/13 01:36:08;;;;;;;0.30;0.30;;;-1.40;99.90;;;;;;5059024;28;20177;-67
2024/01/13 01:38:34;;;;;;;0.53;0.53;;;-1.40;99.90;;;;;;5061683;28;20177;-67
2024/01/13 01:40:59;;;;;;;0.00;0.00;;;-1.50;99.90;;;;;;5053275;28;20556;-67
2024/01/13 01:43:25;;;;;;;0.00;0.00;;;-1.50;99.90;;;;;;5053250;28;20553;-67
2024/01/13 01:45:51;;;;;;;0.27;0.27;;;-1.60;99.90;;;;;;5053217;28;20181;-67
2024/01/13 01:48:18;;;;;;;0.07;0.07;;;-1.50;99.90;;;;;;5053333;28;20720;-67
2024/01/13 01:50:44;;;;;;;0.00;0.00;;;-1.50;99.90;;;;;;5052899;28;20174;-67
2024/01/13 01:53:11;;;;;;;0.03;0.03;;;-1.50;99.90;;;;;;5053345;28;20268;-67
2024/01/13 01:55:37;;;;;;;0.00;0.00;;;-1.50;99.90;;;;;;5052690;28;20724;-67
2024/01/13 01:58:04;;;;;;;0.00;0.00;;;-1.50;99.90;;;;;;5052990;28;20287;-67
2024/01/13 02:00:32;;;;;;;0.43;0.43;;;-1.50;99.90;;;;;;5051739;28;20196;-69
2024/01/13 02:02:57;;;;;;;0.00;0.00;;;-1.50;99.90;;;;;;5052874;28;20287;-68
2024/01/13 02:05:23;;;;;;;0.27;0.27;;;-1.60;99.90;;;;;;5052832;28;20274;-67
2024/01/13 02:07:50;;;;;;;0.00;0.00;;;-1.70;99.90;;;;;;5057821;28;20220;-67
2024/01/13 02:10:17;;;;;;;0.63;0.47;;;-1.70;99.90;;;;;;5052937;28;20256;-67
2024/01/13 02:12:43;;;;;;;0.43;0.43;;;-1.70;99.90;;;;;;5052657;28;20189;-67
2024/01/13 02:15:09;;;;;;;0.30;0.30;;;-1.80;99.90;;;;;;5052637;28;20189;-67
2024/01/13 02:17:36;;;;;;;0.00;0.00;;;-1.80;99.90;;;;;;5052607;28;20648;-67
2024/01/13 02:20:07;;;;;;;0.03;0.03;;;-1.80;99.90;;;;;;5052765;28;20181;-67
2024/01/13 02:22:33;;;;;;;0.10;0.10;;;-1.80;99.90;;;;;;5052403;28;20217;-66
2024/01/13 02:25:02;;;;;;;0.00;0.00;;;-1.80;99.90;;;;;;5052555;28;20805;-67
2024/01/13 02:27:28;;;;;;;0.63;0.63;;;-1.80;99.90;;;;;;5052397;28;20193;-67
2024/01/13 02:29:54;;;;;;;0.00;0.00;;;-1.70;99.90;;;;;;5052396;28;20641;-67
2024/01/13 02:32:20;;;;;;;0.00;0.00;;;-1.70;99.90;;;;;;5052027;28;20173;-67
2024/01/13 02:34:46;;;;;;;0.00;0.00;;;-1.70;99.90;;;;;;5034248;28;20671;-67
2024/01/13 02:37:11;;;;;;;0.00;0.00;;;-1.70;99.90;;;;;;5061533;28;20204;-67
2024/01/13 02:39:37;;;;;;;0.10;0.10;;;-1.70;99.90;;;;;;5052138;28;20189;-67
2024/01/13 02:42:03;;;;;;;0.00;0.00;;;-1.80;99.90;;;;;;5051544;28;20225;-67
2024/01/13 02:44:29;;;;;;;0.00;0.00;;;-1.80;99.90;;;;;;5052164;28;20572;-68
2024/01/13 02:46:55;;;;;;;0.00;0.00;;;-1.80;99.90;;;;;;5052203;28;20221;-67
2024/01/13 02:49:20;;;;;;;0.00;0.00;;;-1.80;99.90;;;;;;5051606;28;20219;-65
2024/01/13 02:51:46;;;;;;;0.00;0.00;;;-1.80;99.90;;;;;;5051910;28;20177;-65
2024/01/13 02:54:12;;;;;;;0.00;0.00;;;-1.80;99.90;;;;;;5052166;28;20185;-65
2024/01/13 02:56:37;;;;;;;0.00;0.00;;;-1.80;99.90;;;;;;5050861;28;20620;-66
2024/01/13 02:59:03;;;;;;;0.00;0.00;;;-1.70;99.90;;;;;;5052761;28;20191;-66
2024/01/13 03:01:32;;;;;;;0.00;0.00;;;-1.70;99.90;;;;;;5050810;28;20185;-65
2024/01/13 03:03:57;;;;;;;0.00;0.00;;;-1.70;99.90;;;;;;5051724;28;20216;-65
2024/01/13 03:06:24;;;;;;;0.00;0.00;;;-1.70;99.90;;;;;;5058091;28;20249;-66
2024/01/13 03:08:49;;;;;;;0.00;0.00;;;-1.70;99.90;;;;;;5054531;28;20664;-67
2024/01/13 03:11:15;;;;;;;0.00;0.00;;;-1.70;99.90;;;;;;5056715;28;20181;-66
2024/01/13 03:13:41;;;;;;;0.17;0.17;;;-1.60;99.90;;;;;;5051495;28;20214;-66
2024/01/13 03:16:06;;;;;;;0.00;0.00;;;-1.60;99.90;;;;;;5051372;28;20537;-65
2024/01/13 03:18:32;;;;;;;0.00;0.00;;;-1.60;99.90;;;;;;5051479;28;20189;-66
2024/01/13 03:20:58;;;;;;;0.00;0.00;;;-1.60;99.90;;;;;;5051551;28;20185;-66
2024/01/13 03:23:23;;;;;;;0.03;0.03;;;-1.60;99.90;;;;;;5051396;28;20217;-65
2024/01/13 03:25:49;;;;;;;0.20;0.20;;;-1.50;99.90;;;;;;5051343;28;20204;-65
2024/01/13 03:28:14;;;;;;;0.10;0.10;;;-1.50;99.90;;;;;;5051406;28;20538;-67
2024/01/13 03:30:40;;;;;;;0.00;0.00;;;-1.50;99.90;;;;;;5051058;28;21603;-67
2024/01/13 03:33:05;;;;;;;0.00;0.00;;;-1.50;99.90;;;;;;5051133;28;20191;-67
2024/01/13 03:35:31;;;;;;;0.00;0.00;;;-1.50;99.90;;;;;;5051337;28;20188;-67
2024/01/13 03:37:57;;;;;;;0.00;0.00;;;-1.50;99.90;;;;;;5054139;28;20186;-67
2024/01/13 03:40:22;;;;;;;0.00;0.00;;;-1.50;99.90;;;;;;5051122;28;20182;-67
2024/01/13 03:42:48;;;;;;;0.00;0.00;;;-1.50;99.90;;;;;;5050899;28;20232;-67
2024/01/13 03:45:13;;;;;;;0.20;0.20;;;-1.50;99.90;;;;;;5050679;28;20173;-67
2024/01/13 03:47:40;;;;;;;0.00;0.00;;;-1.60;99.90;;;;;;5051059;28;20652;-67
2024/01/13 03:50:07;;;;;;;0.17;0.17;;;-1.60;99.90;;;;;;5051120;28;20209;-67
2024/01/13 03:52:32;;;;;;;0.00;0.00;;;-1.50;99.90;;;;;;5050810;28;20848;-66
2024/01/13 03:54:58;;;;;;;0.00;0.00;;;-1.50;99.90;;;;;;5051099;28;20204;-67
2024/01/13 03:57:24;;;;;;;0.07;0.07;;;-1.50;99.90;;;;;;5050840;28;20193;-68
2024/01/13 03:59:50;;;;;;;0.00;0.00;;;-1.50;99.90;;;;;;5050876;28;20189;-68
2024/01/13 04:02:15;;;;;;;0.20;0.20;;;-1.50;99.90;;;;;;5050068;28;20292;-68
2024/01/13 04:04:41;;;;;;;0.00;0.00;;;-1.50;99.90;;;;;;5050920;28;20660;-67
2024/01/13 04:07:07;;;;;;;0.00;0.00;;;-1.50;99.90;;;;;;5051148;28;20523;-68
2024/01/13 04:09:33;;;;;;;0.00;0.00;;;-1.50;99.90;;;;;;5050843;28;20181;-67
2024/01/13 04:11:58;;;;;;;0.10;0.10;;;-1.50;99.90;;;;;;5050716;28;20189;-68
2024/01/13 04:14:24;;;;;;;0.10;0.10;;;-1.50;99.90;;;;;;5050844;28;20312;-68
2024/01/13 04:16:49;;;;;;;0.10;0.10;;;-1.40;99.90;;;;;;5049167;28;20181;-67
2024/01/13 04:19:15;;;;;;;0.00;0.00;;;-1.50;99.90;;;;;;5050759;28;20268;-66
2024/01/13 04:21:41;;;;;;;0.10;0.10;;;-1.40;99.90;;;;;;5050241;28;20208;-67
2024/01/13 04:24:08;;;;;;;0.00;0.00;;;-1.50;99.90;;;;;;5050441;28;20223;-67
2024/01/13 04:26:34;;;;;;;0.10;0.10;;;-1.50;99.90;;;;;;5050536;28;20181;-66
2024/01/13 04:29:00;;;;;;;0.00;0.00;;;-1.50;99.90;;;;;;5050870;28;20193;-68
2024/01/13 04:31:25;;;;;;;0.10;0.10;;;-1.40;99.90;;;;;;5048835;28;20181;-67
2024/01/13 04:33:51;;;;;;;0.00;0.00;;;-1.40;99.90;;;;;;5050296;28;20252;-66
2024/01/13 04:36:17;;;;;;;0.00;0.00;;;-1.40;99.90;;;;;;5051306;28;20251;-67
2024/01/13 04:38:43;;;;;;;0.00;0.00;;;-1.50;99.90;;;;;;5049149;28;20276;-66
2024/01/13 04:41:09;;;;;;;0.00;0.00;;;-1.50;99.90;;;;;;5050591;28;20288;-66
2024/01/13 04:43:37;;;;;;;0.00;0.00;;;-1.50;99.90;;;;;;5050371;28;20223;-67
2024/01/13 04:46:03;;;;;;;0.00;0.00;;;-1.50;99.90;;;;;;5050048;28;20200;-66
2024/01/13 04:48:28;;;;;;;0.00;0.00;;;-1.50;99.90;;;;;;5050729;28;20185;-67
2024/01/13 04:50:54;;;;;;;0.00;0.00;;;-1.40;99.90;;;;;;5050564;28;20213;-67
2024/01/13 04:53:19;;;;;;;0.10;0.10;;;-1.40;99.90;;;;;;5050395;28;20211;-67
2024/01/13 04:55:45;;;;;;;0.00;0.00;;;-1.50;99.90;;;;;;5050308;28;20196;-67
2024/01/13 04:58:10;;;;;;;0.00;0.00;;;-1.50;99.90;;;;;;5049538;28;20182;-68
2024/01/13 05:00:36;;;;;;;0.07;0.07;;;-1.50;99.90;;;;;;5050462;28;20192;-67
2024/01/13 05:03:02;;;;;;;0.37;0.37;;;-1.40;99.90;;;;;;5050241;28;20235;-67
2024/01/13 05:05:27;;;;;;;0.00;0.00;;;-1.40;99.90;;;;;;5049118;28;20192;-68
2024/01/13 05:07:53;;;;;;;0.00;0.00;;;-1.50;99.90;;;;;;5051850;28;20222;-67
2024/01/13 05:10:18;;;;;;;0.00;0.00;;;-1.50;99.90;;;;;;5050397;28;20184;-66
2024/01/13 05:12:44;;;;;;;0.00;0.00;;;-1.50;99.90;;;;;;5050707;28;20652;-66
2024/01/13 05:15:09;;;;;;;0.00;0.00;;;-1.50;99.90;;;;;;5053811;28;20195;-66
2024/01/13 05:17:35;;;;;;;0.00;0.00;;;-1.50;99.90;;;;;;5053706;28;20173;-66
2024/01/13 05:20:00;;;;;;;0.00;0.00;;;-1.50;99.90;;;;;;5053396;28;20540;-66
2024/01/13 05:22:26;;;;;;;0.00;0.00;;;-1.50;99.90;;;;;;5053210;28;20661;-66
2024/01/13 05:24:51;;;;;;;0.00;0.00;;;-1.50;99.90;;;;;;5053584;28;20185;-66
2024/01/13 05:27:17;;;;;;;0.60;0.60;;;-1.50;99.90;;;;;;5053861;28;20211;-66
2024/01/13 05:29:42;;;;;;;0.00;0.00;;;-1.50;99.90;;;;;;5053301;28;20205;-66
2024/01/13 05:32:08;;;;;;;0.10;0.10;;;-1.50;99.90;;;;;;5053287;28;20716;-66
2024/01/13 05:34:34;;;;;;;0.07;0.07;;;-1.60;99.90;;;;;;5053608;28;20222;-66
2024/01/13 05:36:59;;;;;;;0.30;0.30;;;-1.60;99.90;;;;;;5055183;28;20221;-66
2024/01/13 05:39:25;;;;;;;0.00;0.00;;;-1.60;99.90;;;;;;5053129;28;20629;-66
2024/01/13 05:41:50;;;;;;;0.00;0.00;;;-1.60;99.90;;;;;;5052555;28;20313;-66
2024/01/13 05:44:16;;;;;;;0.00;0.00;;;-1.60;99.90;;;;;;5052971;28;20758;-66
2024/01/13 05:46:41;;;;;;;0.00;0.00;;;-1.60;99.90;;;;;;5053011;28;20178;-67
2024/01/13 05:49:08;;;;;;;0.23;0.23;;;-1.70;99.90;;;;;;5053113;28;20185;-66
2024/01/13 05:51:34;;;;;;;0.00;0.00;;;-1.70;99.90;;;;;;5053223;28;20192;-66
2024/01/13 05:53:59;;;;;;;0.00;0.00;;;-1.70;99.90;;;;;;5052984;28;20189;-66
2024/01/13 05:56:25;;;;;;;0.37;0.37;;;-1.80;99.90;;;;;;5052907;28;20189;-66
2024/01/13 05:58:52;;;;;;;0.00;0.00;;;-1.70;99.90;;;;;;5053290;28;20239;-66
2024/01/13 06:01:17;;;;;;;0.00;0.00;;;-1.70;99.90;;;;;;5053133;28;20276;-67
2024/01/13 06:03:43;;;;;;;0.20;0.20;;;-1.80;99.90;;;;;;5052734;28;20303;-67
2024/01/13 06:06:08;;;;;;;0.43;0.43;;;-1.80;99.90;;;;;;5055371;28;20189;-66
2024/01/13 06:08:34;;;;;;;0.67;0.67;;;-1.80;99.90;;;;;;5052725;28;20242;-66
2024/01/13 06:11:03;;;;;;;0.00;0.00;;;-1.80;99.90;;;;;;5054087;28;20533;-66
2024/01/13 06:13:28;;;;;;;0.10;0.10;;;-1.80;99.90;;;;;;5052619;28;20196;-67
2024/01/13 06:15:54;;;;;;;0.07;0.07;;;-1.80;99.90;;;;;;5052490;28;20185;-66
2024/01/13 06:18:19;;;;;;;0.00;0.00;;;-1.80;99.90;;;;;;5051410;28;20652;-67
2024/01/13 06:20:46;;;;;;;0.00;0.00;;;-1.80;99.90;;;;;;5052370;28;20704;-67
2024/01/13 06:23:11;;;;;;;0.00;0.00;;;-1.80;99.90;;;;;;5052608;28;20252;-67
2024/01/13 06:25:37;;;;;;;0.00;0.00;;;-1.80;99.90;;;;;;5051431;28;20186;-66
2024/01/13 06:28:03;;;;;;;0.00;0.00;;;-1.80;99.90;;;;;;5052148;28;20189;-67
2024/01/13 06:30:28;;;;;;;0.00;0.00;;;-1.70;99.90;;;;;;5053075;28;20550;-67
2024/01/13 06:32:54;;;;;;;0.00;0.00;;;-1.70;99.90;;;;;;5052413;28;20177;-67
2024/01/13 06:35:19;;;;;;;0.00;0.00;;;-1.80;99.90;;;;;;5052308;28;20189;-67
2024/01/13 06:37:45;;;;;;;0.00;0.00;;;-1.80;99.90;;;;;;5052362;28;20225;-67
2024/01/13 06:40:11;;;;;;;0.00;0.00;;;-1.80;99.90;;;;;;5052151;28;20181;-68
2024/01/13 06:42:36;;;;;;;0.27;0.27;;;-1.80;99.90;;;;;;5052163;28;20257;-67
2024/01/13 06:45:02;;;;;;;0.20;0.20;;;-1.80;99.90;;;;;;5052189;28;20193;-67
2024/01/13 06:47:28;;;;;;;0.47;0.47;;;-1.90;99.90;;;;;;5050925;28;20189;-68
2024/01/13 06:49:53;;;;;;;0.00;0.00;;;-1.90;99.90;;;;;;5050951;28;20189;-67
2024/01/13 06:52:19;;;;;;;0.10;0.10;;;-1.90;99.90;;;;;;5051829;28;20239;-67
2024/01/13 06:54:45;;;;;;;0.00;0.00;;;-1.90;99.90;;;;;;5052145;28;20181;-66
2024/01/13 06:57:10;;;;;;;0.40;0.40;;;-1.90;99.90;;;;;;5052129;28;20185;-66
2024/01/13 06:59:36;;;;;;;0.00;0.00;;;-1.80;99.90;;;;;;5050741;28;20189;-65
2024/01/13 07:02:02;;;;;;;0.00;0.00;;;-1.90;99.90;;;;;;5051429;28;20197;-66
2024/01/13 07:04:28;;;;;;;0.00;0.00;;;-1.80;99.90;;;;;;5051910;28;20546;-64
2024/01/13 07:06:54;;;;;;;0.10;0.10;;;-1.80;99.90;;;;;;5052982;28;20186;-65
2024/01/13 07:09:19;;;;;;;0.00;0.00;;;-1.90;99.90;;;;;;5051866;28;20185;-65
2024/01/13 07:11:49;;;;;;;0.00;0.00;;;-1.90;99.90;;;;;;5050381;28;20194;-66
2024/01/13 07:14:14;;;;;;;0.00;0.00;;;-1.80;99.90;;;;;;5050840;28;20261;-65
2024/01/13 07:16:40;;;;;;;0.00;0.00;;;-1.80;99.90;;;;;;5051870;28;20280;-62
2024/01/13 07:19:07;;;;;;;0.37;0.37;;;-1.80;99.90;;;;;;5049915;28;20208;-63
2024/01/13 07:21:33;;;;;;;0.27;0.27;;;-1.70;99.90;;;;;;5051551;28;20177;-64
2024/01/13 07:23:58;;;;;;;0.00;0.00;;;-1.70;99.90;;;;;;5051189;28;20228;-65
2024/01/13 07:26:23;;;;;;;0.00;0.00;;;-1.70;99.90;;;;;;5050238;28;20182;-62
2024/01/13 07:28:49;;;;;;;0.00;0.00;;;-1.70;99.90;;;;;;5051483;28;20189;-64
2024/01/13 07:31:14;;;;;;;0.53;0.53;;;-1.70;99.90;;;;;;5051420;28;20255;-64
2024/01/13 07:33:41;;;;;;;0.00;0.00;;;-1.70;99.90;;;;;;5051499;28;20200;-64
2024/01/13 07:36:07;;;;;;;0.23;0.23;;;-1.70;99.90;;;;;;5055602;28;20204;-64
2024/01/13 07:38:32;;;;;;;0.00;0.00;;;-1.70;99.90;;;;;;5051235;28;20177;-64
2024/01/13 07:40:58;;;;;;;0.13;0.13;;;-1.70;99.90;;;;;;5049969;28;20180;-62
2024/01/13 07:43:23;;;;;;;0.10;0.10;;;-1.70;99.90;;;;;;5051248;28;20221;-60
2024/01/13 07:45:49;;;;;;;0.00;0.00;;;-1.60;99.90;;;;;;5050335;28;20511;-63
2024/01/13 07:48:14;;;;;;;0.10;0.10;;;-1.60;99.90;;;;;;5050966;28;20227;-64
2024/01/13 07:50:40;;;;;;;0.47;0.47;;;-1.50;99.90;;;;;;5051365;28;20209;-64
2024/01/13 07:53:05;;;;;;;0.20;0.13;;;-1.50;99.90;;;;;;5051281;28;20239;-64
2024/01/13 07:55:31;;;;;;;0.00;0.00;;;-1.50;99.90;;;;;;5051529;28;20177;-64
2024/01/13 07:57:56;;;;;;;0.93;0.93;;;-1.50;99.90;;;;;;5051482;28;20224;-64
2024/01/13 08:00:23;;;;;;;0.00;0.00;;;-1.50;99.90;;;;;;5051274;28;20188;-63
2024/01/13 08:02:49;;;;;;;0.20;0.20;;;-1.50;99.90;;;;;;5051164;28;20213;-63
2024/01/13 08:05:15;;;;;;;0.23;0.23;;;-1.60;99.90;;;;;;5051323;28;20637;-64
2024/01/13 08:07:40;;;;;;;0.00;0.00;;;-1.60;99.90;;;;;;5057149;28;20195;-63
2024/01/13 08:10:06;;;;;;;0.23;0.23;;;-1.50;99.90;;;;;;5050187;28;20181;-61
2024/01/13 08:12:32;;;;;;;0.40;0.40;;;-1.50;99.90;;;;;;5050634;28;20196;-64
2024/01/13 08:14:57;;;;;;;0.27;0.27;;;-1.50;99.90;;;;;;5049439;28;20193;-64
2024/01/13 08:17:24;;;;;;;0.10;0.10;;;-1.50;99.90;;;;;;5050449;28;20772;-64
2024/01/13 08:19:50;;;;;;;0.03;0.03;;;-1.40;99.90;;;;;;5050255;28;20227;-64
2024/01/13 08:22:15;;;;;;;0.00;0.00;;;-1.40;99.90;;;;;;5049142;28;20209;-64
2024/01/13 08:24:41;;;;;;;0.33;0.33;;;-1.40;99.90;;;;;;5047740;28;20515;-64
2024/01/13 08:27:07;;;;;;;0.00;0.00;;;-1.40;99.90;;;;;;5050598;28;20185;-64
2024/01/13 08:29:32;;;;;;;0.00;0.00;;;-1.40;99.90;;;;;;5050765;28;20712;-65
2024/01/13 08:31:58;;;;;;;0.05;0.05;;;-1.40;99.90;;;;;;5051350;28;20280;-65
2024/01/13 08:34:24;;;;;;;0.10;0.10;;;-1.40;99.90;;;;;;5051361;28;20183;-65
2024/01/13 08:36:49;;;;;;;0.07;0.07;;;-1.40;99.90;;;;;;5050741;28;20198;-65
2024/01/13 08:39:15;;;;;;;0.00;0.00;;;-1.40;99.90;;;;;;5049608;28;20189;-64
2024/01/13 08:41:40;;;;;;;0.00;0.00;;;-1.40;99.90;;;;;;5050834;28;20282;-65
2024/01/13 08:44:06;;;;;;;0.00;0.00;;;-1.40;99.90;;;;;;5051023;28;20221;-65
2024/01/13 08:46:31;;;;;;;0.00;0.00;;;-1.40;99.90;;;;;;5050669;28;20683;-64
2024/01/13 08:48:57;;;;;;;0.17;0.17;;;-1.40;99.90;;;;;;5051980;28;20663;-65
2024/01/13 08:51:23;;;;;;;0.00;0.00;;;-1.30;99.90;;;;;;5054179;28;20304;-63
2024/01/13 08:53:49;;;;;;;0.50;0.50;;;-1.30;99.90;;;;;;5054349;28;20170;-63
2024/01/13 08:56:14;;;;;;;0.40;0.40;;;-1.30;99.90;;;;;;5054856;28;20667;-61
2024/01/13 08:58:41;;;;;;;0.00;0.00;;;-1.30;99.90;;;;;;5053972;28;20224;-66
2024/01/13 09:01:06;;;;;;;0.00;0.00;;;-1.40;99.90;;;;;;5054365;28;20581;-66
2024/01/13 09:03:32;;;;;;;0.27;0.20;;;-1.40;99.90;;;;;;5054554;28;20224;-66
2024/01/13 09:05:58;;;;;;;0.10;0.10;;;-1.40;99.90;;;;;;5054657;28;20181;-62
2024/01/13 09:08:23;;;;;;;0.00;0.00;;;-1.30;99.90;;;;;;5054472;28;20189;-65
2024/01/13 09:10:49;;;;;;;0.20;0.20;;;-1.30;99.90;;;;;;5054175;28;20235;-62
2024/01/13 09:13:14;;;;;;;0.17;0.17;;;-1.30;99.90;;;;;;5054006;28;20185;-67
2024/01/13 09:15:41;;;;;;;0.77;0.77;;;-1.30;99.90;;;;;;5054210;28;20196;-68
2024/01/13 09:18:08;;;;;;;0.20;0.20;;;-1.30;99.90;;;;;;5053854;28;20174;-66
2024/01/13 09:20:34;;;;;;;0.00;0.00;;;-1.30;99.90;;;;;;5052677;28;20188;-68
2024/01/13 09:22:59;;;;;;;0.00;0.00;;;-1.30;99.90;;;;;;5053186;28;20217;-65
2024/01/13 09:25:25;;;;;;;0.00;0.00;;;-1.30;99.90;;;;;;5050951;28;20181;-65
2024/01/13 09:27:53;;;;;;;0.03;0.03;;;-1.30;99.90;;;;;;5053324;28;20653;-66
2024/01/13 09:30:19;;;;;;;0.00;0.00;;;-1.20;99.90;;;;;;5034057;28;20541;-66
2024/01/13 09:32:44;;;;;;;0.23;0.23;;;-1.20;99.90;;;;;;5040740;28;20177;-63
2024/01/13 09:35:10;;;;;;;0.07;0.07;;;-1.20;99.90;;;;;;5054079;28;20255;-64
2024/01/13 09:37:35;;;;;;;0.00;0.00;;;-1.20;99.90;;;;;;5053899;28;20188;-65
2024/01/13 09:40:01;;;;;;;0.00;0.00;;;-1.10;99.90;;;;;;5053657;28;20255;-65
2024/01/13 09:42:36;;;;;;;0.00;0.00;;;-1.20;99.90;;;;;;5053388;28;20237;-66
2024/01/13 09:45:01;;;;;;;0.00;0.00;;;-1.20;99.90;;;;;;5053691;28;20181;-65
2024/01/13 09:47:28;;;;;;;0.00;0.00;;;-1.20;99.90;;;;;;5053733;28;20186;-65
2024/01/13 09:49:53;;;;;;;0.30;0.30;;;-1.20;99.90;;;;;;5053637;28;20188;-64
2024/01/13 09:52:20;;;;;;;0.10;0.10;;;-1.20;99.90;;;;;;5053642;28;20279;-65
2024/01/13 09:54:54;;;;;;;0.00;0.00;;;-1.20;99.90;;;;;;5052119;28;20186;-65
2024/01/13 09:57:20;;;;;;;0.00;0.00;;;-1.20;99.90;;;;;;5053716;28;20177;-64
2024/01/13 09:59:46;;;;;;;0.00;0.00;;;-1.30;99.90;;;;;;5053209;28;20201;-65
2024/01/13 10:02:13;;;;;;;0.00;0.00;;;-1.30;99.90;;;;;;5053439;28;20556;-65
2024/01/13 10:04:40;;;;;;;0.07;0.07;;;-1.20;99.90;;;;;;5053382;28;20682;-65
2024/01/13 10:07:08;;;;;;;0.40;0.40;;;-1.20;99.90;;;;;;5052304;28;20264;-66
2024/01/13 10:09:33;;;;;;;0.13;0.13;;;-1.10;99.90;;;;;;5053347;28;20170;-65
2024/01/13 10:11:59;;;;;;;0.00;0.00;;;-1.00;99.90;;;;;;5052362;28;20188;-64
2024/01/13 10:14:25;;;;;;;0.00;0.00;;;-1.00;99.90;;;;;;5052864;28;20661;-65
2024/01/13 10:16:50;;;;;;;0.83;0.83;;;-1.00;99.90;;;;;;5052361;28;20618;-64
2024/01/13 10:19:16;;;;;;;0.45;0.45;;;-1.00;99.90;;;;;;5052986;28;20173;-65
2024/01/13 10:21:42;;;;;;;1.87;1.73;;;-1.00;99.90;;;;;;5052082;28;20178;-65
2024/01/13 10:24:08;;;;;;;0.13;0.13;;;-1.00;99.90;;;;;;5051846;28;20301;-65
2024/01/13 10:26:33;;;;;;;0.57;0.57;;;-1.00;99.90;;;;;;5053626;28;20230;-63
2024/01/13 10:28:59;;;;;;;0.07;0.07;;;-1.00;99.90;;;;;;5052709;28;20227;-64
2024/01/13 10:31:25;;;;;;;0.00;0.00;;;-1.10;99.90;;;;;;5052610;28;20176;-64
2024/01/13 10:33:52;;;;;;;0.10;0.10;;;-1.10;99.90;;;;;;5052563;28;20546;-64
2024/01/13 10:36:23;;;;;;;0.00;0.00;;;-1.10;99.90;;;;;;5051349;28;20188;-65
2024/01/13 10:38:49;;;;;;;0.00;0.00;;;-1.10;99.90;;;;;;5052388;28;20228;-65
2024/01/13 10:41:15;;;;;;;0.17;0.17;;;-1.20;99.90;;;;;;5052458;28;20229;-64
2024/01/13 10:43:43;;;;;;;0.00;0.00;;;-1.20;99.90;;;;;;5052356;28;20253;-64
2024/01/13 10:46:11;;;;;;;0.00;0.00;;;-1.10;99.90;;;;;;5052486;28;20260;-64
2024/01/13 10:48:47;;;;;;;0.00;0.00;;;-1.10;99.90;;;;;;5052383;28;20191;-63
2024/01/13 10:51:34;;;;;;;0.00;0.00;;;-1.20;99.90;;;;;;5052634;28;20203;-63
2024/01/13 10:54:01;;;;;;;0.00;0.00;;;-1.20;99.90;;;;;;5051318;28;20459;-63
2024/01/13 10:56:31;;;;;;;0.00;0.00;;;-1.20;99.90;;;;;;5052126;28;20170;-64
2024/01/13 10:58:58;;;;;;;0.00;0.00;;;-1.20;99.90;;;;;;5052133;28;20186;-64
2024/01/13 11:01:24;;;;;;;0.20;0.20;;;-1.20;99.90;;;;;;5051228;28;20181;-64
2024/01/13 11:03:51;;;;;;;0.40;0.40;;;-1.10;99.90;;;;;;5050583;28;20312;-63
2024/01/13 11:06:17;;;;;;;0.10;0.10;;;-1.10;99.90;;;;;;5051454;28;20184;-65
2024/01/13 11:08:44;;;;;;;0.10;0.10;;;-1.10;99.90;;;;;;5051991;28;20264;-64
2024/01/13 11:11:12;;;;;;;0.00;0.00;;;-1.10;99.90;;;;;;5050948;28;20226;-64
2024/01/13 11:13:44;;;;;;;0.00;0.00;;;-1.20;99.90;;;;;;5052000;28;20185;-65
2024/01/13 11:16:14;;;;;;;0.00;0.00;;;-1.20;99.90;;;;;;5052161;28;20268;-64
2024/01/13 11:18:46;;;;;;;0.20;0.20;;;-1.30;99.90;;;;;;5052057;28;20170;-64
2024/01/13 11:21:12;;;;;;;0.20;0.20;;;-1.30;99.90;;;;;;5051868;28;20210;-64
2024/01/13 11:23:58;;;;;;;0.00;0.00;;;-1.30;99.90;;;;;;5051320;28;20228;-64
2024/01/13 11:26:52;;;;;;;0.00;0.00;;;-1.20;99.90;;;;;;5031958;28;20227;-64
2024/01/13 11:29:26;;;;;;;0.00;0.00;;;-1.30;99.90;;;;;;5044839;28;20268;-64
2024/01/13 11:31:57;;;;;;;0.00;0.00;;;-1.30;99.90;;;;;;5052709;28;20165;-64
2024/01/13 11:34:23;;;;;;;0.20;0.20;;;-1.30;99.90;;;;;;5052377;28;20177;-65
2024/01/13 11:36:51;;;;;;;0.00;0.00;;;-1.30;99.90;;;;;;5051123;28;20181;-63
2024/01/13 11:39:18;;;;;;;0.00;0.00;;;-1.40;99.90;;;;;;5052499;28;20174;-64
2024/01/13 11:41:51;;;;;;;0.10;0.10;;;-1.40;99.90;;;;;;5051195;28;20222;-64
2024/01/13 11:44:23;;;;;;;0.30;0.30;;;-1.50;99.90;;;;;;5049737;28;20209;-64
2024/01/13 11:46:56;;;;;;;0.10;0.10;;;-1.50;99.90;;;;;;5051446;28;20178;-65
2024/01/13 11:49:36;;;;;;;0.10;0.10;;;-1.60;99.90;;;;;;5051560;28;20649;-64
2024/01/13 11:52:04;;;;;;;0.17;0.17;;;-1.60;99.90;;;;;;5032790;28;20178;-64
2024/01/13 11:54:31;;;;;;;0.20;0.20;;;-1.60;99.90;;;;;;5039543;28;20186;-63
2024/01/13 11:56:58;;;;;;;0.67;0.20;;;-1.60;99.90;;;;;;5050954;28;20177;-65
2024/01/13 11:59:24;;;;;;;0.10;0.10;;;-1.60;99.90;;;;;;5052678;28;20201;-67
2024/01/13 12:01:50;;;;;;;0.40;0.40;;;-1.50;99.90;;;;;;5052106;28;20189;-66
2024/01/13 12:04:16;;;;;;;0.10;0.10;;;-1.50;99.90;;;;;;5052589;28;20209;-66
2024/01/13 12:06:43;;;;;;;0.17;0.13;;;-1.50;99.90;;;;;;5050555;28;20193;-65
2024/01/13 12:09:11;;;;;;;0.20;0.20;;;-1.50;99.90;;;;;;5047592;28;20244;-65
2024/01/13 12:11:37;;;;;;;0.10;0.10;;;-1.50;99.90;;;;;;5049424;28;20286;-65
2024/01/13 12:14:03;;;;;;;0.10;0.10;;;-1.60;99.90;;;;;;5046965;28;20174;-65
2024/01/13 12:16:29;;;;;;;0.47;0.40;;;-1.60;99.90;;;;;;5049817;28;20189;-64
2024/01/13 12:18:55;;;;;;;0.10;0.10;;;-1.70;99.90;;;;;;5050129;28;20180;-65
2024/01/13 12:21:22;;;;;;;0.47;0.47;;;-1.70;99.90;;;;;;5050430;28;21024;-65
2024/01/13 12:23:48;;;;;;;0.10;0.10;;;-1.70;99.90;;;;;;5049837;28;20209;-64
2024/01/13 12:26:14;;;;;;;0.93;0.93;;;-1.70;99.90;;;;;;5051421;28;20695;-64
2024/01/13 12:28:42;;;;;;;0.10;0.10;;;-1.70;99.90;;;;;;5051346;28;20213;-65
2024/01/13 12:31:09;;;;;;;0.30;0.30;;;-1.70;99.90;;;;;;5051503;28;20177;-64
2024/01/13 12:33:34;;;;;;;0.20;0.20;;;-1.70;99.90;;;;;;5051334;28;20161;-64
2024/01/13 12:36:02;;;;;;;0.27;0.27;;;-1.70;99.90;;;;;;5051469;28;20203;-64
2024/01/13 12:38:28;;;;;;;0.17;0.17;;;-1.70;99.90;;;;;;5050076;28;20268;-64
2024/01/13 12:40:57;;;;;;;0.10;0.10;;;-1.70;99.90;;;;;;5049757;28;20268;-64
2024/01/13 12:43:26;;;;;;;0.07;0.07;;;-1.80;99.90;;;;;;5049995;28;20810;-65